Rudd, IA (50471)

6:24 AM CST on February 19, 2017 (GMT -0600)
East Meroa | | Change Station
Active Advisory: Dense Fog Advisory

Elev 1180 ft 43.25 °N, 92.91 °W | Updated 11 minutes ago

Fog
Fog
27.1 °F
Feels Like 27 °F
N
1.7
Wind Variable Wind from East

Today
High -- | Low -- °F
--% Chance of Precip.
Yesterday
High -- | Low -- °F
Precip. -- in
Pressure 29.95 in
Visibility 3.0 miles
Clouds Clear
Windchill 27 °F
Dew Point 27 °F
Humidity 99%
Rainfall 0.00 in
Snow Depth Not available.
7:03 AM 5:48 PM
Last Quarter, 43% visible
METAR KCCY 191215Z AUTO 11005KT 3SM BR CLR M00/M00 A2995 RMK AO2
Pressure 29.95 in
Visibility 3.0 miles
Clouds Clear
Windchill 27 °F
Dew Point 27 °F
Humidity 99%
Rainfall 0.00 in
Snow Depth Not available.
7:03 AM 5:48 PM
Last Quarter, 43% visible
METAR KCCY 191215Z AUTO 11005KT 3SM BR CLR M00/M00 A2995 RMK AO2

Get Your Daily Forecast Email!

Thanks for signing up!

Be on the lookout for a verification email in your inbox.

You'll start receiving the daily forecast at 8 AM.

×

10-Day Weather Forecast

Almanac

Astronomy

Feb. 19, 2017 Rise Set
Actual Time
Civil Twilight
Nautical Twilight
Astronomical Twilight
Moon
Length of Visible Light
Length of Day
Tomorrow will be .
, % of the Moon is Illuminated

Today's Extremes

State Highs State Lows

Community

WunderPhotos

Upload Photos

1,962,540 photos uploaded!

WunderBlog® & News

Nearby

Air Quality

  Air Quality AQ Index Pollutant
Not available.

Snow Depth

Station Depth Elevation

Earthquake Activity

City Distance Mag. Time & Date
Minimum magnitude displayed is 2.5.

Coastal Water Temperatures

Place Temperature

Stations

Nearby Weather Stations

Station Location Temp. Windchill Dew Point Humidity Wind Precip. Elev Updated Type
                   

Watches & Warnings

Dense Fog Advisory
Issued: 4:14 AM CST Feb. 19, 2017 – National Weather Service

... Dense fog advisory remains in effect until 9 am CST this
morning...

* visibilities of 1/2 mile or less at times.

* Where temperatures are below freezing, the dense fog may deposit
some frost on cold Road surfaces, with the possiblity of
slippery spots.

* These low visibilities combined with night-time darkness will
make travel hazardous through sunrise.

Precautionary/preparedness actions...

A dense fog advisory means visibilities will frequently be
reduced to less than one quarter mile. If driving... slow down...
use your low-beam headlights... and leave plenty of distance ahead
of you. Be alert for frost on roads and slippery spots where
temperatures are below freezing.


Rrs